createdAt,value
2019-04-25T00:02:32.860Z,2.99
2019-04-25T00:07:55.100Z,3.12
2019-04-25T00:12:44.548Z,3.45
2019-04-25T00:17:59.687Z,2.78
2019-04-25T00:23:05.149Z,2.86
2019-04-25T00:28:11.668Z,3.16
2019-04-25T00:33:08.917Z,3.29
2019-04-25T00:38:22.220Z,3.12
2019-04-25T00:43:19.630Z,3.49
2019-04-25T00:48:34.604Z,3.30
2019-04-25T00:53:34.537Z,3.68
2019-04-25T00:58:54.078Z,3.25
2019-04-25T01:03:58.378Z,3.82
2019-04-25T01:09:03.667Z,3.61
2019-04-25T01:14:02.200Z,3.24
2019-04-25T01:19:17.069Z,3.19
2019-04-25T01:24:16.236Z,3.29
2019-04-25T01:29:35.166Z,3.32
2019-04-25T01:34:34.273Z,3.31
2019-04-25T01:39:55.923Z,3.50
2019-04-25T01:44:44.075Z,3.29
2019-04-25T01:49:59.331Z,3.65
2019-04-25T01:55:05.543Z,3.52
2019-04-25T02:00:15.805Z,3.50
2019-04-25T02:05:05.059Z,3.51
2019-04-25T02:10:13.542Z,3.63
2019-04-25T02:15:29.091Z,3.91
2019-04-25T02:20:34.085Z,3.70
2019-04-25T02:25:33.288Z,3.63
2019-04-25T02:30:57.327Z,3.58
2019-04-25T02:35:45.023Z,3.73
2019-04-25T02:40:59.499Z,3.64
2019-04-25T02:45:59.916Z,3.38
2019-04-25T02:51:18.170Z,3.49
2019-04-25T02:56:26.178Z,3.27
2019-04-25T03:01:25.354Z,3.45
2019-04-25T03:06:21.566Z,3.67
2019-04-25T03:11:36.730Z,3.83
2019-04-25T03:16:35.065Z,4.05
2019-04-25T03:21:56.868Z,4.16
2019-04-25T03:26:45.222Z,4.99
2019-04-25T03:32:09.801Z,5.27
2019-04-25T03:36:54.881Z,5.34
2019-04-25T03:42:10.416Z,4.56
2019-04-25T03:47:09.696Z,4.95
2019-04-25T03:52:29.954Z,4.96
2019-04-25T03:57:18.299Z,4.92
2019-04-25T04:02:34.387Z,4.79
2019-04-25T04:07:38.442Z,4.80
2019-04-25T04:12:37.402Z,4.64
2019-04-25T04:17:50.945Z,4.27
2019-04-25T04:23:00.332Z,4.66
2019-04-25T04:28:06.224Z,4.21
2019-04-25T04:33:22.188Z,3.92
2019-04-25T04:38:09.607Z,4.06
2019-04-25T04:43:25.704Z,3.87
2019-04-25T04:48:24.364Z,3.99
2019-04-25T04:53:43.957Z,3.52
2019-04-25T04:58:43.192Z,3.35
2019-04-25T05:03:56.638Z,3.37
2019-04-25T05:08:55.701Z,3.00
2019-04-25T05:14:21.466Z,3.48
2019-04-25T05:19:09.882Z,3.10
2019-04-25T05:24:26.291Z,2.49
2019-04-25T05:29:26.693Z,2.86
2019-04-25T05:39:27.964Z,2.52
2019-04-25T05:44:44.023Z,2.41
2019-04-25T05:49:41.501Z,2.13
2019-04-25T05:54:58.322Z,2.53
2019-04-25T05:59:56.664Z,2.46
2019-04-25T06:10:14.441Z,2.66
2019-04-25T06:15:28.019Z,2.62
2019-04-25T06:20:31.817Z,2.69
2019-04-25T06:25:40.829Z,2.50
2019-04-25T06:30:39.169Z,2.84
2019-04-25T06:36:00.643Z,2.74
2019-04-25T06:40:49.557Z,3.07
2019-04-25T06:46:07.080Z,2.82
2019-04-25T06:51:06.003Z,2.82
2019-04-25T06:56:22.502Z,2.62
2019-04-25T07:01:19.733Z,3.01
2019-04-25T07:06:39.814Z,2.60
2019-04-25T07:11:28.304Z,2.48
2019-04-25T07:16:43.768Z,2.29
2019-04-25T07:21:49.672Z,2.59
2019-04-25T07:26:50.409Z,2.40
2019-04-25T07:31:49.662Z,2.27
2019-04-25T07:37:08.825Z,2.34
2019-04-25T07:42:07.686Z,2.61
2019-04-25T07:47:30.154Z,2.43
2019-04-25T07:52:19.070Z,2.10
2019-04-25T07:57:42.181Z,2.20
2019-04-25T08:02:30.122Z,1.51
2019-04-25T08:08:03.507Z,1.48
2019-04-25T08:12:48.035Z,1.61
2019-04-25T08:17:54.041Z,1.47
2019-04-25T08:22:58.326Z,1.43
2019-04-25T08:28:05.172Z,1.90
2019-04-25T08:33:04.535Z,1.34
2019-04-25T08:38:23.948Z,1.28
2019-04-25T08:43:24.350Z,1.75
2019-04-25T08:48:39.849Z,1.32
2019-04-25T08:53:37.620Z,1.91
2019-04-25T08:59:03.628Z,2.02
2019-04-25T09:03:53.803Z,1.81
2019-04-25T09:09:13.990Z,1.75
2019-04-25T09:14:03.698Z,1.51
2019-04-25T09:19:20.414Z,1.36
2019-04-25T09:24:25.839Z,1.42
2019-04-25T09:29:33.220Z,1.20
2019-04-25T09:34:30.369Z,1.29
2019-04-25T09:39:49.032Z,1.08
2019-04-25T09:44:48.328Z,1.56
2019-04-25T09:50:10.684Z,1.53
2019-04-25T09:54:59.778Z,1.67
2019-04-25T10:00:24.596Z,1.24
2019-04-25T10:05:13.982Z,1.24
2019-04-25T10:10:29.539Z,1.24
2019-04-25T10:15:35.248Z,1.56
2019-04-25T10:20:34.731Z,1.68
2019-04-25T10:25:50.783Z,1.63
2019-04-25T10:31:03.538Z,1.29
2019-04-25T10:35:55.911Z,1.53
2019-04-25T10:41:06.115Z,2.56
2019-04-25T10:46:18.103Z,1.65
2019-04-25T10:51:05.601Z,3.01
2019-04-25T10:56:24.304Z,1.81
2019-04-25T11:01:21.617Z,1.84
2019-04-25T11:06:41.844Z,3.25
2019-04-25T11:12:14.024Z,1.75
2019-04-25T11:17:26.018Z,1.54
2019-04-25T11:22:15.626Z,1.57
2019-04-25T11:27:36.827Z,1.40
2019-04-25T11:32:25.773Z,1.48
2019-04-25T11:37:43.189Z,1.43
2019-04-25T11:42:41.854Z,1.67
2019-04-25T11:47:54.434Z,1.34
2019-04-25T11:52:56.258Z,1.92
2019-04-25T12:02:58.655Z,1.64
2019-04-25T12:08:14.766Z,1.37
2019-04-25T12:13:20.456Z,1.47
2019-04-25T12:18:26.867Z,1.52
2019-04-25T12:23:26.171Z,1.51
2019-04-25T12:28:36.374Z,1.41
2019-04-25T12:33:36.542Z,1.76
2019-04-25T12:38:44.993Z,1.53
2019-04-25T12:43:45.705Z,1.85
2019-04-25T12:48:49.853Z,1.88
2019-04-25T12:53:51.342Z,1.70
2019-04-25T12:59:01.525Z,1.32
2019-04-25T13:03:50.877Z,1.93
2019-04-25T13:09:12.734Z,1.98
2019-04-25T13:14:02.945Z,1.57
2019-04-25T13:19:13.430Z,1.46
2019-04-25T13:24:03.045Z,1.26
2019-04-25T13:29:18.008Z,1.88
2019-04-25T13:34:17.940Z,1.89
2019-04-25T13:39:41.649Z,1.45
2019-04-25T13:44:30.604Z,1.53
2019-04-25T13:49:52.623Z,1.45
2019-04-25T13:54:41.550Z,1.58
2019-04-25T14:00:04.134Z,1.45
2019-04-25T14:04:51.706Z,1.40
2019-04-25T14:10:04.741Z,1.39
2019-04-25T14:15:04.643Z,1.15
2019-04-25T14:20:26.586Z,1.27
2019-04-25T14:25:15.445Z,1.26
2019-04-25T14:30:37.333Z,1.05
2019-04-25T14:35:26.612Z,1.19
2019-04-25T14:40:45.587Z,1.23
2019-04-25T14:45:57.306Z,1.24
2019-04-25T14:50:46.167Z,1.22
2019-04-25T14:56:04.853Z,1.17
2019-04-25T15:01:03.953Z,1.32
2019-04-25T15:06:20.235Z,1.54
2019-04-25T15:11:26.939Z,1.44
2019-04-25T15:16:33.489Z,1.15
2019-04-25T15:21:32.344Z,1.13
2019-04-25T15:26:51.820Z,1.32
2019-04-25T15:32:00.068Z,1.06
2019-04-25T15:36:59.412Z,1.29
2019-04-25T15:42:15.452Z,1.18
2019-04-25T15:47:15.317Z,1.26
2019-04-25T15:52:39.644Z,0.98
2019-04-25T15:57:28.455Z,1.08
2019-04-25T16:02:50.706Z,1.08
2019-04-25T16:07:40.551Z,1.12
2019-04-25T16:12:58.258Z,1.06
2019-04-25T16:17:57.207Z,1.13
2019-04-25T16:28:19.477Z,1.06
2019-04-25T16:33:29.011Z,1.26
2019-04-25T16:38:26.506Z,1.13
2019-04-25T16:43:38.931Z,1.22
2019-04-25T16:48:37.329Z,1.16
2019-04-25T16:53:57.317Z,1.15
2019-04-25T16:59:08.985Z,1.23
2019-04-25T17:04:06.034Z,1.06
2019-04-25T17:09:05.758Z,1.10
2019-04-25T17:14:24.595Z,1.20
2019-04-25T17:19:23.438Z,1.27
2019-04-25T17:24:34.601Z,1.08
2019-04-25T17:29:32.550Z,1.44
2019-04-25T17:34:47.741Z,1.37
2019-04-25T17:39:46.775Z,1.43
2019-04-25T17:45:09.270Z,1.28
2019-04-25T17:50:01.087Z,1.77
2019-04-25T17:55:00.600Z,1.69
2019-04-25T18:00:11.158Z,1.76
2019-04-25T18:05:16.050Z,1.63
2019-04-25T18:10:15.970Z,1.64
2019-04-25T18:20:31.142Z,1.73
2019-04-25T18:25:44.119Z,2.30
2019-04-25T18:30:32.097Z,2.14
2019-04-25T18:35:48.391Z,4.01
2019-04-25T18:40:51.089Z,3.01
2019-04-25T18:46:04.777Z,2.64
2019-04-25T18:50:52.705Z,1.56
2019-04-25T18:56:15.400Z,1.50
2019-04-25T19:01:04.685Z,1.62
2019-04-25T19:06:24.282Z,1.30
2019-04-25T19:11:23.140Z,1.26
2019-04-25T19:16:41.095Z,0.99
2019-04-25T19:21:43.425Z,1.00
2019-04-25T19:26:43.610Z,0.92
2019-04-25T19:32:00.044Z,0.83
2019-04-25T19:37:12.430Z,0.78
2019-04-25T19:42:01.319Z,0.84
2019-04-25T19:47:20.718Z,0.83
2019-04-25T19:52:21.522Z,0.86
2019-04-25T19:57:35.541Z,1.01
2019-04-25T20:02:37.981Z,0.70
2019-04-25T20:07:30.380Z,0.98
2019-04-25T20:12:33.137Z,0.67
2019-04-25T20:17:43.306Z,0.64
2019-04-25T20:22:48.158Z,0.65
2019-04-25T20:27:49.379Z,0.80
2019-04-25T20:32:49.236Z,0.64
2019-04-25T20:38:10.246Z,0.59
2019-04-25T20:42:59.312Z,0.61
2019-04-25T20:48:08.740Z,0.58
2019-04-25T20:53:18.111Z,0.51
2019-04-25T20:58:37.156Z,0.64
2019-04-25T21:03:37.494Z,0.53
2019-04-25T21:08:43.253Z,0.54
2019-04-25T21:13:42.113Z,0.58
2019-04-25T21:19:00.524Z,0.61
2019-04-25T21:23:59.340Z,0.52
2019-04-25T21:29:19.588Z,0.58
2019-04-25T21:34:08.403Z,0.54
2019-04-25T21:39:24.735Z,0.58
2019-04-25T21:44:23.660Z,0.56
2019-04-25T21:49:39.086Z,0.72
2019-04-25T21:54:38.004Z,0.60
2019-04-25T22:00:03.149Z,0.50
2019-04-25T22:04:56.629Z,0.98
2019-04-25T22:15:15.052Z,0.65
2019-04-25T22:25:22.370Z,0.69
2019-04-25T22:30:39.167Z,0.66
2019-04-25T22:35:38.044Z,0.69
2019-04-25T22:40:56.339Z,0.67
2019-04-25T22:45:54.758Z,0.74
2019-04-25T22:51:16.293Z,0.74
2019-04-25T22:56:05.347Z,0.79
2019-04-25T23:01:14.843Z,0.67
2019-04-25T23:06:14.111Z,0.77
2019-04-25T23:11:35.836Z,0.71
2019-04-25T23:16:24.735Z,0.71
2019-04-25T23:21:41.830Z,0.73
2019-04-25T23:26:40.201Z,0.80
2019-04-25T23:32:02.127Z,0.84
2019-04-25T23:36:51.046Z,0.99
2019-04-25T23:42:10.371Z,0.96
2019-04-25T23:47:12.138Z,0.91
2019-04-25T23:52:21.102Z,1.00
2019-04-25T23:57:20.121Z,0.94
